PWSweather.com
Personal Weather Stations
Station Observations
KMOHERMA2
Stony Hill, Hermann, MO 65041

Stony HillHermann, MO 65041

Lat: 38.527, Lon: -91.414

Elevation: 896

Station Type: Davis Vantage Pro 2

High Low Average
Temperature 59.6°F15.3°C 36.4°F2.4°C 41.9°F5.5°C
Dew Point 54.5°F12.5°C 29.7°F-1.3°C 38.2°F3.4°C
Winds 31.0 mph 49.9 kmh Calm Calm 6.0 mph S9.7 kmh S
Wind Gusts 43.0 mph69.2 kmh -- 3.0 mph4.8 kmh
Humidity 95% 66% 87%
Pressure 29.92 in1013.2 mb 29.23 in989.8 mb -
Precipitation 1.30 in33.0 mm - -
Hour Temp Dew Point Humidity Winds Wind Gusts Pressure Precip Precip Rate Daily Precip Total
12:00 AM 38.1°F3.4°C 34.9°F1.6°C 88% Calm Calm -- 29.94 in1013.9 mb 0.00 in0.0 mm 0.00 in0.0 mm 0.00 in0.0 mm
12:05 AM 38.1°F3.4°C 34.9°F1.6°C 88% Calm Calm -- 29.94 in1013.9 mb 0.00 in0.0 mm 0.00 in0.0 mm 0.00 in0.0 mm
12:10 AM 38.1°F3.4°C 34.9°F1.6°C 88% Calm Calm -- 29.93 in1013.5 mb 0.00 in0.0 mm 0.00 in0.0 mm 0.00 in0.0 mm
12:15 AM 38.1°F3.4°C 34.9°F1.6°C 88% 3.0 mph ESE4.8 kmh ESE 5.0 mph8.0 kmh 29.93 in1013.5 mb 0.00 in0.0 mm 0.00 in0.0 mm 0.00 in0.0 mm
12:20 AM 38.1°F3.4°C 34.9°F1.6°C 88% 3.0 mph E4.8 kmh E -- 29.93 in1013.5 mb 0.00 in0.0 mm 0.00 in0.0 mm 0.00 in0.0 mm
12:25 AM 38.1°F3.4°C 34.9°F1.6°C 88% 5.0 mph ESE8.0 kmh ESE -- 29.93 in1013.5 mb 0.00 in0.0 mm 0.00 in0.0 mm 0.00 in0.0 mm
12:30 AM 38.1°F3.4°C 34.9°F1.6°C 88% 9.0 mph ESE14.5 kmh ESE -- 29.93 in1013.5 mb 0.00 in0.0 mm 0.00 in0.0 mm 0.00 in0.0 mm
12:35 AM 38.0°F3.3°C 34.7°F1.5°C 88% 9.0 mph E14.5 kmh E -- 29.93 in1013.5 mb 0.00 in0.0 mm 0.00 in0.0 mm 0.00 in0.0 mm
12:40 AM 38.0°F3.3°C 34.7°F1.5°C 88% 9.0 mph E14.5 kmh E 16.0 mph25.7 kmh 29.93 in1013.5 mb 0.00 in0.0 mm 0.00 in0.0 mm 0.00 in0.0 mm
12:45 AM 37.9°F3.3°C 34.7°F1.5°C 88% 6.0 mph E9.7 kmh E -- 29.92 in1013.2 mb 0.00 in0.0 mm 0.00 in0.0 mm 0.00 in0.0 mm
12:50 AM 37.9°F3.3°C 34.7°F1.5°C 88% Calm Calm -- 29.93 in1013.5 mb 0.00 in0.0 mm 0.00 in0.0 mm 0.00 in0.0 mm
12:55 AM 37.9°F3.3°C 34.7°F1.5°C 88% Calm Calm -- 29.92 in1013.2 mb 0.00 in0.0 mm 0.00 in0.0 mm 0.00 in0.0 mm
01:00 AM 37.8°F3.2°C 34.5°F1.4°C 88% Calm Calm -- 29.92 in1013.2 mb 0.00 in0.0 mm 0.00 in0.0 mm 0.00 in0.0 mm
01:05 AM 37.7°F3.2°C 34.5°F1.4°C 88% Calm Calm -- 29.92 in1013.2 mb 0.00 in0.0 mm 0.00 in0.0 mm 0.00 in0.0 mm
01:10 AM 37.7°F3.2°C 34.9°F1.6°C 89% Calm Calm -- 29.92 in1013.2 mb 0.00 in0.0 mm 0.00 in0.0 mm 0.00 in0.0 mm
01:15 AM 37.7°F3.2°C 34.9°F1.6°C 89% Calm Calm -- 29.92 in1013.2 mb 0.00 in0.0 mm 0.00 in0.0 mm 0.00 in0.0 mm
01:20 AM 37.7°F3.2°C 34.9°F1.6°C 89% 6.0 mph ESE9.7 kmh ESE -- 29.91 in1012.9 mb 0.00 in0.0 mm 0.00 in0.0 mm 0.00 in0.0 mm
01:25 AM 37.6°F3.1°C 34.7°F1.5°C 89% 11.0 mph E17.7 kmh E -- 29.91 in1012.9 mb 0.00 in0.0 mm 0.00 in0.0 mm 0.00 in0.0 mm
01:30 AM 37.6°F3.1°C 34.7°F1.5°C 89% Calm Calm 13.0 mph20.9 kmh 29.91 in1012.9 mb 0.00 in0.0 mm 0.00 in0.0 mm 0.00 in0.0 mm
01:35 AM 37.6°F3.1°C 34.7°F1.5°C 89% Calm Calm -- 29.91 in1012.9 mb 0.00 in0.0 mm 0.00 in0.0 mm 0.00 in0.0 mm
01:40 AM 37.6°F3.1°C 34.7°F1.5°C 89% Calm Calm -- 29.91 in1012.9 mb 0.00 in0.0 mm 0.00 in0.0 mm 0.00 in0.0 mm
01:45 AM 37.5°F3.1°C 34.7°F1.5°C 89% Calm Calm -- 29.91 in1012.9 mb 0.00 in0.0 mm 0.00 in0.0 mm 0.00 in0.0 mm
01:50 AM 37.5°F3.1°C 34.7°F1.5°C 89% Calm Calm -- 29.90 in1012.5 mb 0.00 in0.0 mm 0.00 in0.0 mm 0.00 in0.0 mm
01:55 AM 37.4°F3.0°C 34.5°F1.4°C 89% Calm Calm -- 29.90 in1012.5 mb 0.00 in0.0 mm 0.00 in0.0 mm 0.00 in0.0 mm
02:00 AM 37.4°F3.0°C 34.5°F1.4°C 89% Calm Calm -- 29.89 in1012.2 mb 0.00 in0.0 mm 0.00 in0.0 mm 0.00 in0.0 mm
02:05 AM 37.4°F3.0°C 34.5°F1.4°C 89% Calm Calm -- 29.89 in1012.2 mb 0.00 in0.0 mm 0.00 in0.0 mm 0.00 in0.0 mm
02:10 AM 37.3°F2.9°C 34.3°F1.3°C 89% Calm Calm -- 29.89 in1012.2 mb 0.00 in0.0 mm 0.00 in0.0 mm 0.00 in0.0 mm
02:15 AM 37.3°F2.9°C 34.3°F1.3°C 89% Calm Calm -- 29.89 in1012.2 mb 0.00 in0.0 mm 0.00 in0.0 mm 0.00 in0.0 mm
02:20 AM 37.2°F2.9°C 34.3°F1.3°C 89% Calm Calm -- 29.89 in1012.2 mb 0.00 in0.0 mm 0.00 in0.0 mm 0.00 in0.0 mm
02:25 AM 37.2°F2.9°C 34.3°F1.3°C 89% Calm Calm -- 29.89 in1012.2 mb 0.00 in0.0 mm 0.00 in0.0 mm 0.00 in0.0 mm
02:30 AM 37.2°F2.9°C 34.5°F1.4°C 90% Calm Calm -- 29.88 in1011.9 mb 0.00 in0.0 mm 0.00 in0.0 mm 0.00 in0.0 mm
02:35 AM 37.2°F2.9°C 34.5°F1.4°C 90% Calm Calm -- 29.88 in1011.9 mb 0.00 in0.0 mm 0.00 in0.0 mm 0.00 in0.0 mm
02:40 AM 37.1°F2.8°C 34.3°F1.3°C 90% Calm Calm -- 29.88 in1011.9 mb 0.00 in0.0 mm 0.00 in0.0 mm 0.00 in0.0 mm
02:45 AM 37.1°F2.8°C 34.3°F1.3°C 90% Calm Calm -- 29.88 in1011.9 mb 0.00 in0.0 mm 0.00 in0.0 mm 0.00 in0.0 mm
02:50 AM 37.1°F2.8°C 34.3°F1.3°C 90% Calm Calm -- 29.88 in1011.9 mb 0.00 in0.0 mm 0.00 in0.0 mm 0.00 in0.0 mm
02:55 AM 37.0°F2.8°C 34.3°F1.3°C 90% Calm Calm -- 29.88 in1011.9 mb 0.00 in0.0 mm 0.00 in0.0 mm 0.00 in0.0 mm
03:00 AM 37.0°F2.8°C 34.3°F1.3°C 90% Calm Calm -- 29.87 in1011.5 mb 0.00 in0.0 mm 0.00 in0.0 mm 0.00 in0.0 mm
03:05 AM 37.0°F2.8°C 34.3°F1.3°C 90% Calm Calm -- 29.87 in1011.5 mb 0.00 in0.0 mm 0.00 in0.0 mm 0.00 in0.0 mm
03:10 AM 37.0°F2.8°C 34.3°F1.3°C 90% Calm Calm -- 29.87 in1011.5 mb 0.00 in0.0 mm 0.00 in0.0 mm 0.00 in0.0 mm
03:15 AM 37.0°F2.8°C 34.3°F1.3°C 90% Calm Calm -- 29.86 in1011.2 mb 0.00 in0.0 mm 0.00 in0.0 mm 0.00 in0.0 mm
03:20 AM 37.0°F2.8°C 34.3°F1.3°C 90% Calm Calm -- 29.86 in1011.2 mb 0.00 in0.0 mm 0.00 in0.0 mm 0.00 in0.0 mm
03:25 AM 36.9°F2.7°C 34.2°F1.2°C 90% Calm Calm -- 29.86 in1011.2 mb 0.00 in0.0 mm 0.00 in0.0 mm 0.00 in0.0 mm
03:30 AM 36.9°F2.7°C 34.5°F1.4°C 91% Calm Calm -- 29.85 in1010.8 mb 0.00 in0.0 mm 0.00 in0.0 mm 0.00 in0.0 mm
03:35 AM 36.9°F2.7°C 34.5°F1.4°C 91% Calm Calm -- 29.84 in1010.5 mb 0.00 in0.0 mm 0.00 in0.0 mm 0.00 in0.0 mm
03:40 AM 36.8°F2.7°C 34.5°F1.4°C 91% Calm Calm -- 29.84 in1010.5 mb 0.00 in0.0 mm 0.00 in0.0 mm 0.00 in0.0 mm
03:45 AM 36.8°F2.7°C 34.5°F1.4°C 91% Calm Calm -- 29.84 in1010.5 mb 0.00 in0.0 mm 0.00 in0.0 mm 0.00 in0.0 mm
03:50 AM 36.8°F2.7°C 34.5°F1.4°C 91% Calm Calm -- 29.84 in1010.5 mb 0.00 in0.0 mm 0.00 in0.0 mm 0.00 in0.0 mm
03:55 AM 36.8°F2.7°C 34.5°F1.4°C 91% Calm Calm -- 29.84 in1010.5 mb 0.00 in0.0 mm 0.00 in0.0 mm 0.00 in0.0 mm
04:00 AM 36.7°F2.6°C 34.3°F1.3°C 91% Calm Calm -- 29.82 in1009.8 mb 0.00 in0.0 mm 0.00 in0.0 mm 0.00 in0.0 mm
04:05 AM 36.7°F2.6°C 34.3°F1.3°C 91% Calm Calm -- 29.81 in1009.5 mb 0.00 in0.0 mm 0.00 in0.0 mm 0.00 in0.0 mm
04:10 AM 36.7°F2.6°C 34.3°F1.3°C 91% Calm Calm -- 29.81 in1009.5 mb 0.00 in0.0 mm 0.00 in0.0 mm 0.00 in0.0 mm
04:15 AM 36.7°F2.6°C 34.3°F1.3°C 91% Calm Calm -- 29.81 in1009.5 mb 0.00 in0.0 mm 0.00 in0.0 mm 0.00 in0.0 mm
04:20 AM 36.7°F2.6°C 34.3°F1.3°C 91% Calm Calm -- 29.81 in1009.5 mb 0.00 in0.0 mm 0.00 in0.0 mm 0.00 in0.0 mm
04:25 AM 36.7°F2.6°C 34.3°F1.3°C 91% Calm Calm -- 29.80 in1009.1 mb 0.00 in0.0 mm 0.00 in0.0 mm 0.00 in0.0 mm
04:30 AM 36.7°F2.6°C 34.3°F1.3°C 91% Calm Calm -- 29.80 in1009.1 mb 0.00 in0.0 mm 0.00 in0.0 mm 0.00 in0.0 mm
04:35 AM 36.7°F2.6°C 34.5°F1.4°C 92% Calm Calm -- 29.80 in1009.1 mb 0.00 in0.0 mm 0.00 in0.0 mm 0.00 in0.0 mm
04:40 AM 36.7°F2.6°C 34.5°F1.4°C 92% Calm Calm -- 29.79 in1008.8 mb 0.00 in0.0 mm 0.00 in0.0 mm 0.00 in0.0 mm
04:45 AM 36.6°F2.6°C 34.5°F1.4°C 92% Calm Calm -- 29.79 in1008.8 mb 0.00 in0.0 mm 0.00 in0.0 mm 0.00 in0.0 mm
04:50 AM 36.6°F2.6°C 34.5°F1.4°C 92% Calm Calm -- 29.78 in1008.5 mb 0.00 in0.0 mm 0.00 in0.0 mm 0.00 in0.0 mm
04:55 AM 36.6°F2.6°C 34.5°F1.4°C 92% Calm Calm -- 29.78 in1008.5 mb 0.00 in0.0 mm 0.00 in0.0 mm 0.00 in0.0 mm
05:00 AM 36.6°F2.6°C 34.5°F1.4°C 92% Calm Calm -- 29.78 in1008.5 mb 0.00 in0.0 mm 0.00 in0.0 mm 0.00 in0.0 mm
05:05 AM 36.6°F2.6°C 34.5°F1.4°C 92% Calm Calm -- 29.77 in1008.1 mb 0.00 in0.0 mm 0.00 in0.0 mm 0.00 in0.0 mm
05:10 AM 36.6°F2.6°C 34.5°F1.4°C 92% Calm Calm -- 29.77 in1008.1 mb 0.00 in0.0 mm 0.00 in0.0 mm 0.00 in0.0 mm
05:15 AM 36.6°F2.6°C 34.5°F1.4°C 92% Calm Calm -- 29.76 in1007.8 mb 0.00 in0.0 mm 0.00 in0.0 mm 0.00 in0.0 mm
05:20 AM 36.6°F2.6°C 34.5°F1.4°C 92% Calm Calm -- 29.76 in1007.8 mb 0.00 in0.0 mm 0.00 in0.0 mm 0.00 in0.0 mm
05:25 AM 36.6°F2.6°C 34.5°F1.4°C 92% Calm Calm -- 29.76 in1007.8 mb 0.00 in0.0 mm 0.00 in0.0 mm 0.00 in0.0 mm
05:30 AM 36.6°F2.6°C 34.5°F1.4°C 92% Calm Calm -- 29.76 in1007.8 mb 0.00 in0.0 mm 0.00 in0.0 mm 0.00 in0.0 mm
05:35 AM 36.6°F2.6°C 34.5°F1.4°C 92% Calm Calm -- 29.76 in1007.8 mb 0.00 in0.0 mm 0.00 in0.0 mm 0.00 in0.0 mm
05:40 AM 36.6°F2.6°C 34.5°F1.4°C 92% Calm Calm 2.0 mph3.2 kmh 29.76 in1007.8 mb 0.00 in0.0 mm 0.00 in0.0 mm 0.00 in0.0 mm
05:45 AM 36.6°F2.6°C 34.5°F1.4°C 92% Calm Calm -- 29.75 in1007.5 mb 0.00 in0.0 mm 0.00 in0.0 mm 0.00 in0.0 mm
05:50 AM 36.5°F2.5°C 34.3°F1.3°C 92% Calm Calm -- 29.73 in1006.8 mb 0.00 in0.0 mm 0.00 in0.0 mm 0.00 in0.0 mm
05:55 AM 36.5°F2.5°C 34.3°F1.3°C 92% Calm Calm -- 29.72 in1006.4 mb 0.00 in0.0 mm 0.00 in0.0 mm 0.00 in0.0 mm
06:00 AM 36.5°F2.5°C 34.3°F1.3°C 92% Calm Calm -- 29.73 in1006.8 mb 0.00 in0.0 mm 0.00 in0.0 mm 0.00 in0.0 mm
06:05 AM 36.5°F2.5°C 34.3°F1.3°C 92% Calm Calm 4.0 mph6.4 kmh 29.73 in1006.8 mb 0.00 in0.0 mm 0.00 in0.0 mm 0.00 in0.0 mm
06:10 AM 36.4°F2.4°C 34.5°F1.4°C 93% Calm Calm -- 29.73 in1006.8 mb 0.00 in0.0 mm 0.00 in0.0 mm 0.00 in0.0 mm
06:15 AM 36.4°F2.4°C 34.5°F1.4°C 93% Calm Calm -- 29.73 in1006.8 mb 0.00 in0.0 mm 0.00 in0.0 mm 0.00 in0.0 mm
06:20 AM 36.5°F2.5°C 34.7°F1.5°C 93% Calm Calm -- 29.73 in1006.8 mb 0.00 in0.0 mm 0.00 in0.0 mm 0.00 in0.0 mm
06:25 AM 36.4°F2.4°C 34.5°F1.4°C 93% 5.0 mph SE8.0 kmh SE -- 29.73 in1006.8 mb 0.00 in0.0 mm 0.00 in0.0 mm 0.00 in0.0 mm
06:30 AM 36.4°F2.4°C 34.5°F1.4°C 93% 7.0 mph ESE11.3 kmh ESE 15.0 mph24.1 kmh 29.73 in1006.8 mb 0.00 in0.0 mm 0.00 in0.0 mm 0.00 in0.0 mm
06:35 AM 36.5°F2.5°C 34.7°F1.5°C 93% 9.0 mph ESE14.5 kmh ESE -- 29.72 in1006.4 mb 0.00 in0.0 mm 0.00 in0.0 mm 0.00 in0.0 mm
06:40 AM 36.5°F2.5°C 34.7°F1.5°C 93% 10.0 mph ESE16.1 kmh ESE -- 29.71 in1006.1 mb 0.00 in0.0 mm 0.00 in0.0 mm 0.00 in0.0 mm
06:45 AM 36.5°F2.5°C 34.7°F1.5°C 93% 9.0 mph E14.5 kmh E -- 29.70 in1005.8 mb 0.00 in0.0 mm 0.00 in0.0 mm 0.00 in0.0 mm
06:50 AM 36.5°F2.5°C 34.7°F1.5°C 93% 9.0 mph ESE14.5 kmh ESE -- 29.70 in1005.8 mb 0.00 in0.0 mm 0.00 in0.0 mm 0.00 in0.0 mm
06:55 AM 36.5°F2.5°C 34.7°F1.5°C 93% 10.0 mph ESE16.1 kmh ESE 17.0 mph27.4 kmh 29.70 in1005.8 mb 0.00 in0.0 mm 0.00 in0.0 mm 0.00 in0.0 mm
07:00 AM 36.5°F2.5°C 34.7°F1.5°C 93% 7.0 mph E11.3 kmh E -- 29.69 in1005.4 mb 0.00 in0.0 mm 0.00 in0.0 mm 0.00 in0.0 mm
07:05 AM 36.5°F2.5°C 34.7°F1.5°C 93% 10.0 mph E16.1 kmh E -- 29.69 in1005.4 mb 0.00 in0.0 mm 0.00 in0.0 mm 0.00 in0.0 mm
07:10 AM 36.5°F2.5°C 34.7°F1.5°C 93% 10.0 mph ESE16.1 kmh ESE -- 29.69 in1005.4 mb 0.00 in0.0 mm 0.00 in0.0 mm 0.00 in0.0 mm
07:15 AM 36.5°F2.5°C 34.7°F1.5°C 93% 12.0 mph ESE19.3 kmh ESE -- 29.67 in1004.7 mb 0.00 in0.0 mm 0.00 in0.0 mm 0.00 in0.0 mm
07:20 AM 36.5°F2.5°C 34.7°F1.5°C 93% 11.0 mph ESE17.7 kmh ESE 15.0 mph24.1 kmh 29.68 in1005.1 mb 0.00 in0.0 mm 0.00 in0.0 mm 0.00 in0.0 mm
07:25 AM 36.5°F2.5°C 34.9°F1.6°C 94% 6.0 mph ESE9.7 kmh ESE -- 29.67 in1004.7 mb 0.01 in0.3 mm 0.12 in3.0 mm 0.01 in0.3 mm
07:30 AM 36.5°F2.5°C 34.9°F1.6°C 94% Calm Calm -- 29.67 in1004.7 mb 0.03 in0.8 mm 0.24 in6.1 mm 0.03 in0.8 mm
07:35 AM 36.5°F2.5°C 34.9°F1.6°C 94% Calm Calm -- 29.68 in1005.1 mb 0.05 in1.3 mm 0.24 in6.1 mm 0.05 in1.3 mm
07:40 AM 36.5°F2.5°C 34.9°F1.6°C 94% Calm Calm -- 29.67 in1004.7 mb 0.07 in1.8 mm 0.24 in6.1 mm 0.07 in1.8 mm
07:45 AM 36.6°F2.6°C 35.1°F1.7°C 94% Calm Calm 12.0 mph19.3 kmh 29.69 in1005.4 mb 0.09 in2.3 mm 0.24 in6.1 mm 0.09 in2.3 mm
07:50 AM 36.6°F2.6°C 35.1°F1.7°C 94% Calm Calm -- 29.67 in1004.7 mb 0.15 in3.8 mm 0.72 in18.3 mm 0.15 in3.8 mm
07:55 AM 36.6°F2.6°C 35.1°F1.7°C 94% Calm Calm -- 29.67 in1004.7 mb 0.20 in5.1 mm 0.60 in15.2 mm 0.20 in5.1 mm
08:00 AM 36.7°F2.6°C 35.1°F1.7°C 94% Calm Calm -- 29.67 in1004.7 mb 0.22 in5.6 mm 0.02 in0.5 mm 0.22 in5.6 mm
08:05 AM 36.7°F2.6°C 35.1°F1.7°C 94% Calm Calm -- 29.66 in1004.4 mb 0.23 in5.8 mm 0.12 in3.0 mm 0.23 in5.8 mm
08:10 AM 36.7°F2.6°C 35.1°F1.7°C 94% Calm Calm 9.0 mph14.5 kmh 29.66 in1004.4 mb 0.24 in6.1 mm 0.12 in3.0 mm 0.24 in6.1 mm
08:15 AM 36.8°F2.7°C 35.2°F1.8°C 94% Calm Calm -- 29.66 in1004.4 mb 0.25 in6.4 mm 0.12 in3.0 mm 0.25 in6.4 mm
08:30 AM 37.0°F2.8°C 35.4°F1.9°C 94% Calm Calm -- 29.66 in1004.4 mb 0.34 in8.6 mm 0.36 in9.1 mm 0.37 in9.4 mm
08:35 AM 37.1°F2.8°C 35.4°F1.9°C 94% Calm Calm -- 29.66 in1004.4 mb 0.35 in8.9 mm 0.12 in3.0 mm 0.39 in9.9 mm
08:40 AM 37.1°F2.8°C 35.4°F1.9°C 94% Calm Calm 5.0 mph8.0 kmh 29.64 in1003.7 mb 0.35 in8.9 mm 0.00 in0.0 mm 0.42 in10.7 mm
08:45 AM 37.2°F2.9°C 35.6°F2.0°C 94% Calm Calm -- 29.63 in1003.4 mb 0.35 in8.9 mm 0.00 in0.0 mm 0.44 in11.2 mm
08:50 AM 37.2°F2.9°C 35.6°F2.0°C 94% Calm Calm -- 29.65 in1004.1 mb 0.31 in7.9 mm 0.00 in0.0 mm 0.45 in11.4 mm
08:55 AM 37.3°F2.9°C 35.6°F2.0°C 94% Calm Calm -- 29.66 in1004.4 mb 0.26 in6.6 mm 0.00 in0.0 mm 0.46 in11.7 mm
09:00 AM 37.3°F2.9°C 35.6°F2.0°C 94% Calm Calm -- 29.66 in1004.4 mb 0.28 in7.1 mm 0.02 in0.5 mm 0.50 in12.7 mm
09:05 AM 37.3°F2.9°C 35.6°F2.0°C 94% Calm Calm -- 29.65 in1004.1 mb 0.29 in7.4 mm 0.12 in3.0 mm 0.52 in13.2 mm
09:10 AM 37.2°F2.9°C 35.6°F2.0°C 94% Calm Calm -- 29.66 in1004.4 mb 0.29 in7.4 mm 0.00 in0.0 mm 0.53 in13.5 mm
09:15 AM 37.2°F2.9°C 35.6°F2.0°C 94% 7.0 mph ESE11.3 kmh ESE -- 29.65 in1004.1 mb 0.29 in7.4 mm 0.00 in0.0 mm 0.54 in13.7 mm
09:20 AM 37.1°F2.8°C 35.4°F1.9°C 94% 12.0 mph E19.3 kmh E -- 29.65 in1004.1 mb 0.31 in7.9 mm 0.24 in6.1 mm 0.56 in14.2 mm
09:25 AM 37.1°F2.8°C 35.4°F1.9°C 94% 11.0 mph SE17.7 kmh SE -- 29.64 in1003.7 mb 0.32 in8.1 mm 0.12 in3.0 mm 0.57 in14.5 mm
09:30 AM 37.1°F2.8°C 35.4°F1.9°C 94% Calm Calm 15.0 mph24.1 kmh 29.63 in1003.4 mb 0.21 in5.3 mm 0.00 in0.0 mm 0.58 in14.7 mm
09:35 AM 37.1°F2.8°C 35.4°F1.9°C 94% Calm Calm -- 29.62 in1003.0 mb 0.20 in5.1 mm 0.00 in0.0 mm 0.59 in15.0 mm
09:40 AM 37.0°F2.8°C 35.4°F1.9°C 94% Calm Calm -- 29.63 in1003.4 mb 0.19 in4.8 mm 0.00 in0.0 mm 0.61 in15.5 mm
09:45 AM 37.0°F2.8°C 35.4°F1.9°C 94% 3.0 mph ESE4.8 kmh ESE -- 29.61 in1002.7 mb 0.18 in4.6 mm 0.00 in0.0 mm 0.62 in15.7 mm
09:50 AM 37.1°F2.8°C 35.4°F1.9°C 94% 2.0 mph E3.2 kmh E -- 29.62 in1003.0 mb 0.18 in4.6 mm 0.00 in0.0 mm 0.63 in16.0 mm
09:55 AM 37.1°F2.8°C 35.4°F1.9°C 94% Calm Calm 10.0 mph16.1 kmh 29.63 in1003.4 mb 0.18 in4.6 mm 0.00 in0.0 mm 0.64 in16.3 mm
10:00 AM 37.1°F2.8°C 35.4°F1.9°C 94% Calm Calm -- 29.58 in1001.7 mb 0.17 in4.3 mm 0.00 in0.0 mm 0.67 in17.0 mm
10:05 AM 37.0°F2.8°C 35.4°F1.9°C 94% Calm Calm -- 29.59 in1002.0 mb 0.16 in4.1 mm 0.00 in0.0 mm 0.68 in17.3 mm
10:10 AM 37.1°F2.8°C 35.4°F1.9°C 94% 1.0 mph E1.6 kmh E -- 29.59 in1002.0 mb 0.15 in3.8 mm 0.00 in0.0 mm 0.68 in17.3 mm
10:15 AM 37.1°F2.8°C 35.4°F1.9°C 94% Calm Calm -- 29.59 in1002.0 mb 0.15 in3.8 mm 0.00 in0.0 mm 0.69 in17.5 mm
10:20 AM 37.1°F2.8°C 35.4°F1.9°C 94% Calm Calm 6.0 mph9.7 kmh 29.61 in1002.7 mb 0.14 in3.6 mm 0.00 in0.0 mm 0.70 in17.8 mm
10:25 AM 37.1°F2.8°C 35.4°F1.9°C 94% 5.0 mph ESE8.0 kmh ESE -- 29.59 in1002.0 mb 0.21 in5.3 mm 0.84 in21.3 mm 0.78 in19.8 mm
10:30 AM 37.2°F2.9°C 35.6°F2.0°C 94% Calm Calm -- 29.63 in1003.4 mb 0.28 in7.1 mm 0.84 in21.3 mm 0.86 in21.8 mm
10:35 AM 37.2°F2.9°C 35.6°F2.0°C 94% Calm Calm -- 29.58 in1001.7 mb 0.35 in8.9 mm 0.84 in21.3 mm 0.94 in23.9 mm
10:40 AM 37.2°F2.9°C 35.6°F2.0°C 94% Calm Calm -- 29.56 in1001.0 mb 0.36 in9.1 mm 0.12 in3.0 mm 0.97 in24.6 mm
10:45 AM 37.2°F2.9°C 35.6°F2.0°C 94% Calm Calm 2.0 mph3.2 kmh 29.55 in1000.7 mb 0.36 in9.1 mm 0.00 in0.0 mm 0.98 in24.9 mm
10:50 AM 37.2°F2.9°C 35.6°F2.0°C 94% Calm Calm -- 29.55 in1000.7 mb 0.36 in9.1 mm 0.00 in0.0 mm 0.99 in25.1 mm
10:55 AM 37.2°F2.9°C 35.6°F2.0°C 94% Calm Calm -- 29.55 in1000.7 mb 0.36 in9.1 mm 0.00 in0.0 mm 1.00 in25.4 mm
11:00 AM 37.3°F2.9°C 35.6°F2.0°C 94% Calm Calm -- 29.54 in1000.3 mb 0.33 in8.4 mm 0.00 in0.0 mm 1.00 in25.4 mm
11:05 AM 37.3°F2.9°C 35.6°F2.0°C 94% Calm Calm -- 29.54 in1000.3 mb 0.33 in8.4 mm 0.00 in0.0 mm 1.01 in25.7 mm
11:10 AM 37.3°F2.9°C 35.6°F2.0°C 94% Calm Calm -- 29.54 in1000.3 mb 0.34 in8.6 mm 0.12 in3.0 mm 1.02 in25.9 mm
11:15 AM 37.3°F2.9°C 35.6°F2.0°C 94% Calm Calm -- 29.56 in1001.0 mb 0.35 in8.9 mm 0.12 in3.0 mm 1.04 in26.4 mm
11:20 AM 37.3°F2.9°C 35.6°F2.0°C 94% Calm Calm -- 29.55 in1000.7 mb 0.35 in8.9 mm 0.00 in0.0 mm 1.05 in26.7 mm
11:25 AM 37.3°F2.9°C 35.6°F2.0°C 94% Calm Calm -- 29.55 in1000.7 mb 0.30 in7.6 mm 0.00 in0.0 mm 1.08 in27.4 mm
11:30 AM 37.3°F2.9°C 35.6°F2.0°C 94% Calm Calm -- 29.55 in1000.7 mb 0.24 in6.1 mm 0.00 in0.0 mm 1.10 in27.9 mm
11:35 AM 37.3°F2.9°C 35.6°F2.0°C 94% Calm Calm 2.0 mph3.2 kmh 29.56 in1001.0 mb 0.18 in4.6 mm 0.00 in0.0 mm 1.12 in28.4 mm
11:40 AM 37.4°F3.0°C 35.8°F2.1°C 94% Calm Calm -- 29.56 in1001.0 mb 0.16 in4.1 mm 0.00 in0.0 mm 1.13 in28.7 mm
11:45 AM 37.4°F3.0°C 35.8°F2.1°C 94% Calm Calm -- 29.55 in1000.7 mb 0.17 in4.3 mm 0.12 in3.0 mm 1.15 in29.2 mm
11:50 AM 37.4°F3.0°C 35.8°F2.1°C 94% Calm Calm -- 29.53 in1000.0 mb 0.18 in4.6 mm 0.12 in3.0 mm 1.17 in29.7 mm
11:55 AM 37.6°F3.1°C 36.3°F2.4°C 95% Calm Calm -- 29.49 in998.6 mb 0.18 in4.6 mm 0.00 in0.0 mm 1.18 in30.0 mm
12:00 PM 37.6°F3.1°C 36.3°F2.4°C 95% Calm Calm -- 29.46 in997.6 mb 0.18 in4.6 mm 0.00 in0.0 mm 1.18 in30.0 mm
12:05 PM 37.6°F3.1°C 36.3°F2.4°C 95% Calm Calm -- 29.44 in997.0 mb 0.18 in4.6 mm 0.00 in0.0 mm 1.19 in30.2 mm
12:10 PM 37.7°F3.2°C 36.5°F2.5°C 95% Calm Calm -- 29.42 in996.3 mb 0.17 in4.3 mm 0.00 in0.0 mm 1.19 in30.2 mm
12:15 PM 37.8°F3.2°C 36.5°F2.5°C 95% Calm Calm -- 29.41 in995.9 mb 0.15 in3.8 mm 0.00 in0.0 mm 1.19 in30.2 mm
12:20 PM 38.1°F3.4°C 36.9°F2.7°C 95% Calm Calm -- 29.43 in996.6 mb 0.14 in3.6 mm 0.00 in0.0 mm 1.19 in30.2 mm
12:25 PM 38.5°F3.6°C 37.2°F2.9°C 95% Calm Calm 1.0 mph1.6 kmh 29.44 in997.0 mb 0.11 in2.8 mm 0.00 in0.0 mm 1.19 in30.2 mm
12:30 PM 38.6°F3.7°C 37.4°F3.0°C 95% Calm Calm -- 29.45 in997.3 mb 0.09 in2.3 mm 0.00 in0.0 mm 1.19 in30.2 mm
12:35 PM 38.8°F3.8°C 37.6°F3.1°C 95% Calm Calm -- 29.47 in998.0 mb 0.07 in1.8 mm 0.00 in0.0 mm 1.19 in30.2 mm
12:40 PM 39.1°F3.9°C 37.8°F3.2°C 95% Calm Calm -- 29.47 in998.0 mb 0.06 in1.5 mm 0.00 in0.0 mm 1.19 in30.2 mm
12:45 PM 39.2°F4.0°C 37.9°F3.3°C 95% Calm Calm -- 29.46 in997.6 mb 0.04 in1.0 mm 0.00 in0.0 mm 1.19 in30.2 mm
12:50 PM 39.4°F4.1°C 38.1°F3.4°C 95% 3.0 mph SE4.8 kmh SE 7.0 mph11.3 kmh 29.46 in997.6 mb 0.03 in0.8 mm 0.00 in0.0 mm 1.19 in30.2 mm
12:55 PM 39.7°F4.3°C 38.5°F3.6°C 95% Calm Calm -- 29.45 in997.3 mb 0.01 in0.3 mm 0.00 in0.0 mm 1.19 in30.2 mm
01:00 PM 39.9°F4.4°C 38.7°F3.7°C 95% Calm Calm -- 29.45 in997.3 mb 0.01 in0.3 mm 0.00 in0.0 mm 1.19 in30.2 mm
01:05 PM 40.2°F4.6°C 39.0°F3.9°C 95% Calm Calm -- 29.43 in996.6 mb 0.00 in0.0 mm 0.00 in0.0 mm 1.19 in30.2 mm
01:10 PM 40.7°F4.8°C 39.4°F4.1°C 95% 10.0 mph E16.1 kmh E 9.0 mph14.5 kmh 29.42 in996.3 mb 0.00 in0.0 mm 0.00 in0.0 mm 1.19 in30.2 mm
01:15 PM 40.9°F4.9°C 39.6°F4.2°C 95% 3.0 mph ESE4.8 kmh ESE -- 29.41 in995.9 mb 0.00 in0.0 mm 0.00 in0.0 mm 1.19 in30.2 mm
01:20 PM 41.4°F5.2°C 40.1°F4.5°C 95% 5.0 mph SE8.0 kmh SE -- 29.40 in995.6 mb 0.00 in0.0 mm 0.00 in0.0 mm 1.19 in30.2 mm
01:25 PM 41.9°F5.5°C 40.6°F4.8°C 95% 1.0 mph ESE1.6 kmh ESE -- 29.39 in995.3 mb 0.00 in0.0 mm 0.00 in0.0 mm 1.19 in30.2 mm
01:30 PM 42.0°F5.6°C 40.8°F4.9°C 95% Calm Calm -- 29.39 in995.3 mb 0.00 in0.0 mm 0.00 in0.0 mm 1.19 in30.2 mm
01:35 PM 42.4°F5.8°C 41.2°F5.1°C 95% 2.0 mph ESE3.2 kmh ESE 11.0 mph17.7 kmh 29.38 in994.9 mb 0.00 in0.0 mm 0.00 in0.0 mm 1.19 in30.2 mm
01:40 PM 42.6°F5.9°C 41.4°F5.2°C 95% Calm Calm -- 29.36 in994.2 mb 0.00 in0.0 mm 0.00 in0.0 mm 1.19 in30.2 mm
01:45 PM 42.8°F6.0°C 41.5°F5.3°C 95% Calm Calm -- 29.35 in993.9 mb 0.00 in0.0 mm 0.00 in0.0 mm 1.19 in30.2 mm
01:50 PM 43.2°F6.2°C 41.9°F5.5°C 95% Calm Calm -- 29.35 in993.9 mb 0.00 in0.0 mm 0.00 in0.0 mm 1.19 in30.2 mm
01:55 PM 43.7°F6.5°C 42.4°F5.8°C 95% Calm Calm -- 29.34 in993.6 mb 0.00 in0.0 mm 0.00 in0.0 mm 1.19 in30.2 mm
02:00 PM 44.0°F6.7°C 42.8°F6.0°C 95% Calm Calm 1.0 mph1.6 kmh 29.34 in993.6 mb 0.00 in0.0 mm 0.00 in0.0 mm 1.19 in30.2 mm
02:05 PM 44.7°F7.1°C 43.5°F6.4°C 95% Calm Calm -- 29.32 in992.9 mb 0.00 in0.0 mm 0.00 in0.0 mm 1.19 in30.2 mm
02:10 PM 45.1°F7.3°C 43.9°F6.6°C 95% Calm Calm -- 29.32 in992.9 mb 0.00 in0.0 mm 0.00 in0.0 mm 1.19 in30.2 mm
02:15 PM 46.2°F7.9°C 44.8°F7.1°C 95% Calm Calm -- 29.31 in992.6 mb 0.00 in0.0 mm 0.00 in0.0 mm 1.19 in30.2 mm
02:20 PM 47.0°F8.3°C 45.5°F7.5°C 95% Calm Calm -- 29.31 in992.6 mb 0.00 in0.0 mm 0.00 in0.0 mm 1.19 in30.2 mm
02:25 PM 48.5°F9.2°C 47.1°F8.4°C 95% Calm Calm -- 29.30 in992.2 mb 0.00 in0.0 mm 0.00 in0.0 mm 1.19 in30.2 mm
02:30 PM 49.9°F9.9°C 48.4°F9.1°C 95% Calm Calm -- 29.29 in991.9 mb 0.00 in0.0 mm 0.00 in0.0 mm 1.19 in30.2 mm
02:35 PM 51.1°F10.6°C 49.6°F9.8°C 95% Calm Calm -- 29.28 in991.5 mb 0.00 in0.0 mm 0.00 in0.0 mm 1.19 in30.2 mm
02:40 PM 52.0°F11.1°C 50.5°F10.3°C 95% Calm Calm -- 29.28 in991.5 mb 0.00 in0.0 mm 0.00 in0.0 mm 1.19 in30.2 mm
02:45 PM 53.3°F11.8°C 51.8°F11.0°C 95% 3.0 mph S4.8 kmh S -- 29.27 in991.2 mb 0.00 in0.0 mm 0.00 in0.0 mm 1.19 in30.2 mm
02:50 PM 55.0°F12.8°C 53.6°F12.0°C 95% 11.0 mph SSE17.7 kmh SSE 21.0 mph33.8 kmh 29.27 in991.2 mb 0.00 in0.0 mm 0.00 in0.0 mm 1.19 in30.2 mm
02:55 PM 56.4°F13.6°C 54.5°F12.5°C 93% 9.0 mph SSW14.5 kmh SSW -- 29.26 in990.9 mb 0.00 in0.0 mm 0.00 in0.0 mm 1.19 in30.2 mm
03:00 PM 57.2°F14.0°C 54.0°F12.2°C 89% 7.0 mph SSW11.3 kmh SSW -- 29.25 in990.5 mb 0.00 in0.0 mm 0.00 in0.0 mm 1.19 in30.2 mm
03:05 PM 58.1°F14.5°C 54.3°F12.4°C 87% 10.0 mph S16.1 kmh S -- 29.25 in990.5 mb 0.00 in0.0 mm 0.00 in0.0 mm 1.19 in30.2 mm
03:10 PM 59.0°F15.0°C 54.1°F12.3°C 84% 11.0 mph S17.7 kmh S -- 29.25 in990.5 mb 0.00 in0.0 mm 0.00 in0.0 mm 1.19 in30.2 mm
03:15 PM 59.6°F15.3°C 53.4°F11.9°C 80% 16.0 mph S25.7 kmh S 23.0 mph37.0 kmh 29.24 in990.2 mb 0.00 in0.0 mm 0.00 in0.0 mm 1.19 in30.2 mm
03:20 PM 59.5°F15.3°C 52.0°F11.1°C 76% 4.0 mph S6.4 kmh S -- 29.23 in989.8 mb 0.00 in0.0 mm 0.00 in0.0 mm 1.19 in30.2 mm
03:25 PM 59.1°F15.1°C 51.3°F10.7°C 75% Calm Calm -- 29.23 in989.8 mb 0.00 in0.0 mm 0.00 in0.0 mm 1.19 in30.2 mm
03:30 PM 58.7°F14.8°C 50.4°F10.2°C 74% Calm Calm -- 29.23 in989.8 mb 0.00 in0.0 mm 0.00 in0.0 mm 1.19 in30.2 mm
03:35 PM 58.7°F14.8°C 49.6°F9.8°C 72% Calm Calm -- 29.27 in991.2 mb 0.01 in0.3 mm 0.12 in3.0 mm 1.20 in30.5 mm
03:40 PM 57.4°F14.1°C 48.4°F9.1°C 72% 9.0 mph W14.5 kmh W 17.0 mph27.4 kmh 29.29 in991.9 mb 0.01 in0.3 mm 0.00 in0.0 mm 1.20 in30.5 mm
03:45 PM 54.1°F12.3°C 47.8°F8.8°C 79% 2.0 mph SW3.2 kmh SW -- 29.30 in992.2 mb 0.07 in1.8 mm 0.72 in18.3 mm 1.26 in32.0 mm
03:50 PM 51.0°F10.6°C 46.4°F8.0°C 84% Calm Calm -- 29.28 in991.5 mb 0.10 in2.5 mm 0.36 in9.1 mm 1.29 in32.8 mm
03:55 PM 50.1°F10.1°C 47.1°F8.4°C 89% 7.0 mph SW11.3 kmh SW -- 29.28 in991.5 mb 0.10 in2.5 mm 0.00 in0.0 mm 1.29 in32.8 mm
04:00 PM 51.2°F10.7°C 48.7°F9.3°C 91% 8.0 mph WSW12.9 kmh WSW -- 29.29 in991.9 mb 0.10 in2.5 mm 0.00 in0.0 mm 1.29 in32.8 mm
04:05 PM 51.3°F10.7°C 48.4°F9.1°C 90% 6.0 mph SW9.7 kmh SW 16.0 mph25.7 kmh 29.29 in991.9 mb 0.10 in2.5 mm 0.00 in0.0 mm 1.29 in32.8 mm
04:10 PM 51.2°F10.7°C 48.4°F9.1°C 90% 10.0 mph WSW16.1 kmh WSW -- 29.30 in992.2 mb 0.10 in2.5 mm 0.00 in0.0 mm 1.29 in32.8 mm
04:15 PM 51.8°F11.0°C 48.9°F9.4°C 90% 3.0 mph SW4.8 kmh SW -- 29.30 in992.2 mb 0.10 in2.5 mm 0.00 in0.0 mm 1.29 in32.8 mm
04:20 PM 52.4°F11.3°C 49.5°F9.7°C 90% 4.0 mph WSW6.4 kmh WSW -- 29.30 in992.2 mb 0.10 in2.5 mm 0.00 in0.0 mm 1.29 in32.8 mm
04:25 PM 52.8°F11.6°C 49.6°F9.8°C 89% 3.0 mph WSW4.8 kmh WSW -- 29.30 in992.2 mb 0.10 in2.5 mm 0.00 in0.0 mm 1.29 in32.8 mm
04:30 PM 53.1°F11.7°C 49.6°F9.8°C 88% 6.0 mph WSW9.7 kmh WSW 14.0 mph22.5 kmh 29.30 in992.2 mb 0.10 in2.5 mm 0.00 in0.0 mm 1.29 in32.8 mm
04:35 PM 52.9°F11.6°C 49.5°F9.7°C 88% 4.0 mph WSW6.4 kmh WSW -- 29.31 in992.6 mb 0.09 in2.3 mm 0.00 in0.0 mm 1.29 in32.8 mm
04:40 PM 53.0°F11.7°C 49.6°F9.8°C 88% 5.0 mph WSW8.0 kmh WSW -- 29.32 in992.9 mb 0.09 in2.3 mm 0.00 in0.0 mm 1.29 in32.8 mm
04:45 PM 53.4°F11.9°C 50.0°F10.0°C 88% 4.0 mph WSW6.4 kmh WSW -- 29.32 in992.9 mb 0.04 in1.0 mm 0.00 in0.0 mm 1.29 in32.8 mm
04:50 PM 53.3°F11.8°C 49.5°F9.7°C 87% 9.0 mph WSW14.5 kmh WSW -- 29.33 in993.2 mb 0.00 in0.0 mm 0.00 in0.0 mm 1.29 in32.8 mm
04:55 PM 53.0°F11.7°C 48.9°F9.4°C 86% 4.0 mph SW6.4 kmh SW 17.0 mph27.4 kmh 29.33 in993.2 mb 0.00 in0.0 mm 0.00 in0.0 mm 1.29 in32.8 mm
05:00 PM 53.0°F11.7°C 49.3°F9.6°C 87% 7.0 mph SW11.3 kmh SW -- 29.33 in993.2 mb 0.00 in0.0 mm 0.00 in0.0 mm 1.29 in32.8 mm
05:05 PM 52.9°F11.6°C 48.7°F9.3°C 86% 4.0 mph SW6.4 kmh SW -- 29.33 in993.2 mb 0.00 in0.0 mm 0.00 in0.0 mm 1.29 in32.8 mm
05:10 PM 52.9°F11.6°C 48.7°F9.3°C 86% 7.0 mph SW11.3 kmh SW -- 29.34 in993.6 mb 0.00 in0.0 mm 0.00 in0.0 mm 1.29 in32.8 mm
05:15 PM 53.1°F11.7°C 48.9°F9.4°C 86% 3.0 mph SW4.8 kmh SW -- 29.34 in993.6 mb 0.00 in0.0 mm 0.00 in0.0 mm 1.29 in32.8 mm
05:20 PM 53.2°F11.8°C 49.1°F9.5°C 86% 7.0 mph SW11.3 kmh SW 11.0 mph17.7 kmh 29.34 in993.6 mb 0.00 in0.0 mm 0.00 in0.0 mm 1.29 in32.8 mm
05:25 PM 53.4°F11.9°C 48.7°F9.3°C 84% 1.0 mph SW1.6 kmh SW -- 29.34 in993.6 mb 0.00 in0.0 mm 0.00 in0.0 mm 1.29 in32.8 mm
05:30 PM 53.8°F12.1°C 48.0°F8.9°C 81% 4.0 mph SW6.4 kmh SW -- 29.34 in993.6 mb 0.00 in0.0 mm 0.00 in0.0 mm 1.29 in32.8 mm
05:35 PM 54.4°F12.4°C 48.0°F8.9°C 79% 3.0 mph SW4.8 kmh SW -- 29.34 in993.6 mb 0.00 in0.0 mm 0.00 in0.0 mm 1.29 in32.8 mm
05:40 PM 54.8°F12.7°C 47.8°F8.8°C 77% 6.0 mph SW9.7 kmh SW -- 29.35 in993.9 mb 0.00 in0.0 mm 0.00 in0.0 mm 1.29 in32.8 mm
05:45 PM 55.4°F13.0°C 47.3°F8.5°C 74% 8.0 mph SW12.9 kmh SW 21.0 mph33.8 kmh 29.35 in993.9 mb 0.00 in0.0 mm 0.00 in0.0 mm 1.29 in32.8 mm
05:50 PM 55.7°F13.2°C 46.9°F8.3°C 72% 2.0 mph SW3.2 kmh SW -- 29.35 in993.9 mb 0.00 in0.0 mm 0.00 in0.0 mm 1.29 in32.8 mm
05:55 PM 56.0°F13.3°C 46.2°F7.9°C 70% 20.0 mph SW32.2 kmh SW -- 29.36 in994.2 mb 0.00 in0.0 mm 0.00 in0.0 mm 1.29 in32.8 mm
06:00 PM 56.8°F13.8°C 46.0°F7.8°C 67% 30.0 mph S48.3 kmh S -- 29.34 in993.6 mb 0.00 in0.0 mm 0.00 in0.0 mm 1.29 in32.8 mm
06:05 PM 57.0°F13.9°C 45.9°F7.7°C 66% 11.0 mph WSW17.7 kmh WSW -- 29.37 in994.6 mb 0.00 in0.0 mm 0.00 in0.0 mm 1.29 in32.8 mm
06:10 PM 56.9°F13.8°C 45.7°F7.6°C 66% 15.0 mph SW24.1 kmh SW 43.0 mph69.2 kmh 29.37 in994.6 mb 0.00 in0.0 mm 0.00 in0.0 mm 1.29 in32.8 mm
06:15 PM 56.5°F13.6°C 45.3°F7.4°C 66% 20.0 mph SW32.2 kmh SW -- 29.38 in994.9 mb 0.00 in0.0 mm 0.00 in0.0 mm 1.29 in32.8 mm
06:20 PM 56.0°F13.3°C 45.1°F7.3°C 67% 12.0 mph WSW19.3 kmh WSW -- 29.39 in995.3 mb 0.00 in0.0 mm 0.00 in0.0 mm 1.29 in32.8 mm
06:25 PM 56.0°F13.3°C 45.5°F7.5°C 68% 11.0 mph WSW17.7 kmh WSW -- 29.39 in995.3 mb 0.00 in0.0 mm 0.00 in0.0 mm 1.29 in32.8 mm
06:30 PM 55.4°F13.0°C 45.0°F7.2°C 68% 6.0 mph WSW9.7 kmh WSW -- 29.40 in995.6 mb 0.00 in0.0 mm 0.00 in0.0 mm 1.29 in32.8 mm
06:35 PM 54.8°F12.7°C 45.0°F7.2°C 69% 13.0 mph WSW20.9 kmh WSW 38.0 mph61.2 kmh 29.41 in995.9 mb 0.00 in0.0 mm 0.00 in0.0 mm 1.29 in32.8 mm
06:40 PM 54.3°F12.4°C 44.8°F7.1°C 70% 19.0 mph SW30.6 kmh SW -- 29.41 in995.9 mb 0.00 in0.0 mm 0.00 in0.0 mm 1.29 in32.8 mm
06:45 PM 53.9°F12.2°C 44.8°F7.1°C 71% 14.0 mph SW22.5 kmh SW -- 29.42 in996.3 mb 0.00 in0.0 mm 0.00 in0.0 mm 1.29 in32.8 mm
06:50 PM 53.4°F11.9°C 44.6°F7.0°C 72% 6.0 mph SW9.7 kmh SW -- 29.43 in996.6 mb 0.00 in0.0 mm 0.00 in0.0 mm 1.29 in32.8 mm
06:55 PM 52.9°F11.6°C 44.4°F6.9°C 73% 19.0 mph SW30.6 kmh SW -- 29.44 in997.0 mb 0.00 in0.0 mm 0.00 in0.0 mm 1.29 in32.8 mm
07:00 PM 52.0°F11.1°C 43.9°F6.6°C 74% 9.0 mph SW14.5 kmh SW 40.0 mph64.4 kmh 29.46 in997.6 mb 0.00 in0.0 mm 0.00 in0.0 mm 1.29 in32.8 mm
07:05 PM 51.2°F10.7°C 43.5°F6.4°C 75% 11.0 mph WSW17.7 kmh WSW -- 29.46 in997.6 mb 0.00 in0.0 mm 0.00 in0.0 mm 1.29 in32.8 mm
07:10 PM 50.3°F10.2°C 43.2°F6.2°C 76% 17.0 mph SW27.4 kmh SW -- 29.48 in998.3 mb 0.00 in0.0 mm 0.00 in0.0 mm 1.29 in32.8 mm
07:15 PM 49.5°F9.7°C 42.6°F5.9°C 77% 19.0 mph SW30.6 kmh SW -- 29.48 in998.3 mb 0.00 in0.0 mm 0.00 in0.0 mm 1.29 in32.8 mm
07:20 PM 48.9°F9.4°C 42.4°F5.8°C 78% 11.0 mph SW17.7 kmh SW -- 29.50 in999.0 mb 0.00 in0.0 mm 0.00 in0.0 mm 1.29 in32.8 mm
07:25 PM 48.3°F9.1°C 42.3°F5.7°C 79% 14.0 mph WSW22.5 kmh WSW 35.0 mph56.3 kmh 29.50 in999.0 mb 0.00 in0.0 mm 0.00 in0.0 mm 1.29 in32.8 mm
07:30 PM 47.7°F8.7°C 41.7°F5.4°C 80% 31.0 mph WSW49.9 kmh WSW -- 29.51 in999.3 mb 0.00 in0.0 mm 0.00 in0.0 mm 1.29 in32.8 mm
07:35 PM 47.1°F8.4°C 41.5°F5.3°C 81% 5.0 mph SW8.0 kmh SW -- 29.51 in999.3 mb 0.00 in0.0 mm 0.00 in0.0 mm 1.29 in32.8 mm
07:40 PM 46.8°F8.2°C 41.2°F5.1°C 81% 4.0 mph WSW6.4 kmh WSW -- 29.52 in999.7 mb 0.00 in0.0 mm 0.00 in0.0 mm 1.29 in32.8 mm
07:45 PM 46.6°F8.1°C 41.4°F5.2°C 82% 13.0 mph WSW20.9 kmh WSW -- 29.52 in999.7 mb 0.00 in0.0 mm 0.00 in0.0 mm 1.29 in32.8 mm
07:50 PM 46.4°F8.0°C 41.2°F5.1°C 82% 18.0 mph W29.0 kmh W 32.0 mph51.5 kmh 29.53 in1000.0 mb 0.00 in0.0 mm 0.00 in0.0 mm 1.29 in32.8 mm
07:55 PM 46.3°F7.9°C 41.0°F5.0°C 82% 6.0 mph SW9.7 kmh SW -- 29.54 in1000.3 mb 0.00 in0.0 mm 0.00 in0.0 mm 1.29 in32.8 mm
08:00 PM 46.0°F7.8°C 40.8°F4.9°C 82% 19.0 mph WSW30.6 kmh WSW -- 29.55 in1000.7 mb 0.00 in0.0 mm 0.00 in0.0 mm 1.29 in32.8 mm
08:05 PM 45.7°F7.6°C 40.5°F4.7°C 82% 19.0 mph SW30.6 kmh SW -- 29.55 in1000.7 mb 0.00 in0.0 mm 0.00 in0.0 mm 1.29 in32.8 mm
08:10 PM 45.3°F7.4°C 40.1°F4.5°C 82% 15.0 mph WSW24.1 kmh WSW -- 29.57 in1001.4 mb 0.00 in0.0 mm 0.00 in0.0 mm 1.29 in32.8 mm
08:15 PM 45.0°F7.2°C 39.7°F4.3°C 82% 22.0 mph SW35.4 kmh SW 36.0 mph57.9 kmh 29.57 in1001.4 mb 0.01 in0.3 mm 0.12 in3.0 mm 1.30 in33.0 mm
08:20 PM 44.6°F7.0°C 39.2°F4.0°C 81% 13.0 mph WSW20.9 kmh WSW -- 29.58 in1001.7 mb 0.01 in0.3 mm 0.00 in0.0 mm 1.30 in33.0 mm
08:25 PM 44.3°F6.8°C 38.8°F3.8°C 81% 15.0 mph WSW24.1 kmh WSW -- 29.59 in1002.0 mb 0.01 in0.3 mm 0.00 in0.0 mm 1.30 in33.0 mm
08:30 PM 44.0°F6.7°C 38.3°F3.5°C 80% 9.0 mph WSW14.5 kmh WSW -- 29.59 in1002.0 mb 0.01 in0.3 mm 0.00 in0.0 mm 1.30 in33.0 mm
08:35 PM 43.8°F6.6°C 38.1°F3.4°C 80% 18.0 mph WSW29.0 kmh WSW -- 29.59 in1002.0 mb 0.01 in0.3 mm 0.00 in0.0 mm 1.30 in33.0 mm
08:40 PM 43.5°F6.4°C 37.0°F2.8°C 78% 9.0 mph WSW14.5 kmh WSW 34.0 mph54.7 kmh 29.60 in1002.4 mb 0.01 in0.3 mm 0.00 in0.0 mm 1.30 in33.0 mm
08:45 PM 43.4°F6.3°C 37.2°F2.9°C 79% 21.0 mph SW33.8 kmh SW -- 29.61 in1002.7 mb 0.01 in0.3 mm 0.00 in0.0 mm 1.30 in33.0 mm
08:50 PM 43.2°F6.2°C 37.4°F3.0°C 80% 14.0 mph W22.5 kmh W -- 29.62 in1003.0 mb 0.01 in0.3 mm 0.00 in0.0 mm 1.30 in33.0 mm
08:55 PM 42.9°F6.1°C 36.9°F2.7°C 79% 20.0 mph WSW32.2 kmh WSW -- 29.62 in1003.0 mb 0.01 in0.3 mm 0.00 in0.0 mm 1.30 in33.0 mm
09:00 PM 42.6°F5.9°C 36.5°F2.5°C 79% 18.0 mph W29.0 kmh W -- 29.64 in1003.7 mb 0.01 in0.3 mm 0.00 in0.0 mm 1.30 in33.0 mm
09:05 PM 42.3°F5.7°C 36.1°F2.3°C 79% 20.0 mph SSW32.2 kmh SSW 34.0 mph54.7 kmh 29.64 in1003.7 mb 0.01 in0.3 mm 0.00 in0.0 mm 1.30 in33.0 mm
09:10 PM 42.0°F5.6°C 36.0°F2.2°C 79% 10.0 mph WSW16.1 kmh WSW -- 29.65 in1004.1 mb 0.01 in0.3 mm 0.00 in0.0 mm 1.30 in33.0 mm
09:15 PM 41.9°F5.5°C 36.0°F2.2°C 79% 30.0 mph SW48.3 kmh SW -- 29.65 in1004.1 mb 0.00 in0.0 mm 0.00 in0.0 mm 1.30 in33.0 mm
09:20 PM 41.7°F5.4°C 35.8°F2.1°C 79% 14.0 mph SW22.5 kmh SW -- 29.66 in1004.4 mb 0.00 in0.0 mm 0.00 in0.0 mm 1.30 in33.0 mm
09:25 PM 41.4°F5.2°C 35.4°F1.9°C 79% 14.0 mph WSW22.5 kmh WSW -- 29.66 in1004.4 mb 0.00 in0.0 mm 0.00 in0.0 mm 1.30 in33.0 mm
09:30 PM 41.3°F5.2°C 35.4°F1.9°C 79% 13.0 mph WSW20.9 kmh WSW 30.0 mph48.3 kmh 29.67 in1004.7 mb 0.00 in0.0 mm 0.00 in0.0 mm 1.30 in33.0 mm
09:35 PM 41.1°F5.1°C 34.9°F1.6°C 78% 15.0 mph WSW24.1 kmh WSW -- 29.67 in1004.7 mb 0.00 in0.0 mm 0.00 in0.0 mm 1.30 in33.0 mm
09:40 PM 40.9°F4.9°C 34.9°F1.6°C 79% 6.0 mph WSW9.7 kmh WSW -- 29.68 in1005.1 mb 0.00 in0.0 mm 0.00 in0.0 mm 1.30 in33.0 mm
09:45 PM 40.7°F4.8°C 34.7°F1.5°C 79% 11.0 mph SW17.7 kmh SW -- 29.69 in1005.4 mb 0.00 in0.0 mm 0.00 in0.0 mm 1.30 in33.0 mm
09:50 PM 40.5°F4.7°C 34.2°F1.2°C 78% 14.0 mph WSW22.5 kmh WSW -- 29.69 in1005.4 mb 0.00 in0.0 mm 0.00 in0.0 mm 1.30 in33.0 mm
09:55 PM 40.3°F4.6°C 34.0°F1.1°C 78% 6.0 mph WSW9.7 kmh WSW 28.0 mph45.1 kmh 29.70 in1005.8 mb 0.00 in0.0 mm 0.00 in0.0 mm 1.30 in33.0 mm
10:00 PM 40.1°F4.5°C 34.2°F1.2°C 79% 11.0 mph WSW17.7 kmh WSW -- 29.70 in1005.8 mb 0.00 in0.0 mm 0.00 in0.0 mm 1.30 in33.0 mm
10:05 PM 39.9°F4.4°C 34.0°F1.1°C 79% 21.0 mph SW33.8 kmh SW -- 29.71 in1006.1 mb 0.00 in0.0 mm 0.00 in0.0 mm 1.30 in33.0 mm
10:10 PM 39.8°F4.3°C 33.4°F0.8°C 78% 12.0 mph WSW19.3 kmh WSW -- 29.72 in1006.4 mb 0.00 in0.0 mm 0.00 in0.0 mm 1.30 in33.0 mm
10:15 PM 39.7°F4.3°C 33.1°F0.6°C 77% 22.0 mph SW35.4 kmh SW -- 29.72 in1006.4 mb 0.00 in0.0 mm 0.00 in0.0 mm 1.30 in33.0 mm
10:20 PM 39.6°F4.2°C 33.3°F0.7°C 78% 9.0 mph WSW14.5 kmh WSW 32.0 mph51.5 kmh 29.72 in1006.4 mb 0.00 in0.0 mm 0.00 in0.0 mm 1.30 in33.0 mm
10:25 PM 39.4°F4.1°C 33.1°F0.6°C 78% 12.0 mph WSW19.3 kmh WSW -- 29.73 in1006.8 mb 0.00 in0.0 mm 0.00 in0.0 mm 1.30 in33.0 mm
10:30 PM 39.4°F4.1°C 33.1°F0.6°C 78% 7.0 mph WSW11.3 kmh WSW -- 29.74 in1007.1 mb 0.00 in0.0 mm 0.00 in0.0 mm 1.30 in33.0 mm
10:35 PM 39.3°F4.1°C 33.1°F0.6°C 78% 12.0 mph SW19.3 kmh SW -- 29.74 in1007.1 mb 0.00 in0.0 mm 0.00 in0.0 mm 1.30 in33.0 mm
10:40 PM 39.3°F4.1°C 33.4°F0.8°C 79% 17.0 mph W27.4 kmh W -- 29.75 in1007.5 mb 0.00 in0.0 mm 0.00 in0.0 mm 1.30 in33.0 mm
10:45 PM 39.2°F4.0°C 33.3°F0.7°C 79% 14.0 mph SW22.5 kmh SW 30.0 mph48.3 kmh 29.76 in1007.8 mb 0.00 in0.0 mm 0.00 in0.0 mm 1.30 in33.0 mm
10:50 PM 39.2°F4.0°C 32.9°F0.5°C 78% 5.0 mph WSW8.0 kmh WSW -- 29.76 in1007.8 mb 0.00 in0.0 mm 0.00 in0.0 mm 1.30 in33.0 mm
10:55 PM 39.1°F3.9°C 32.7°F0.4°C 78% 7.0 mph SW11.3 kmh SW -- 29.77 in1008.1 mb 0.00 in0.0 mm 0.00 in0.0 mm 1.30 in33.0 mm
11:00 PM 39.0°F3.9°C 32.4°F0.2°C 77% 15.0 mph WSW24.1 kmh WSW -- 29.77 in1008.1 mb 0.00 in0.0 mm 0.00 in0.0 mm 1.30 in33.0 mm
11:05 PM 39.0°F3.9°C 32.7°F0.4°C 78% 4.0 mph WSW6.4 kmh WSW -- 29.77 in1008.1 mb 0.00 in0.0 mm 0.00 in0.0 mm 1.30 in33.0 mm
11:10 PM 38.9°F3.8°C 32.5°F0.3°C 78% 13.0 mph W20.9 kmh W 18.0 mph29.0 kmh 29.77 in1008.1 mb 0.00 in0.0 mm 0.00 in0.0 mm 1.30 in33.0 mm
11:15 PM 38.9°F3.8°C 32.5°F0.3°C 78% 12.0 mph W19.3 kmh W -- 29.78 in1008.5 mb 0.00 in0.0 mm 0.00 in0.0 mm 1.30 in33.0 mm
11:20 PM 38.8°F3.8°C 32.2°F0.1°C 77% 6.0 mph W9.7 kmh W -- 29.78 in1008.5 mb 0.00 in0.0 mm 0.00 in0.0 mm 1.30 in33.0 mm
11:25 PM 38.7°F3.7°C 32.0°F0.0°C 77% 10.0 mph WNW16.1 kmh WNW -- 29.79 in1008.8 mb 0.00 in0.0 mm 0.00 in0.0 mm 1.30 in33.0 mm
11:30 PM 38.7°F3.7°C 32.0°F0.0°C 77% 22.0 mph WNW35.4 kmh WNW -- 29.79 in1008.8 mb 0.00 in0.0 mm 0.00 in0.0 mm 1.30 in33.0 mm
11:35 PM 38.7°F3.7°C 31.8°F-0.1°C 76% 26.0 mph W41.8 kmh W 30.0 mph48.3 kmh 29.79 in1008.8 mb 0.00 in0.0 mm 0.00 in0.0 mm 1.30 in33.0 mm
11:40 PM 38.7°F3.7°C 31.5°F-0.3°C 75% 18.0 mph WSW29.0 kmh WSW -- 29.80 in1009.1 mb 0.00 in0.0 mm 0.00 in0.0 mm 1.30 in33.0 mm
11:45 PM 38.7°F3.7°C 31.5°F-0.3°C 75% 10.0 mph SW16.1 kmh SW -- 29.80 in1009.1 mb 0.00 in0.0 mm 0.00 in0.0 mm 1.30 in33.0 mm
11:50 PM 38.6°F3.7°C 31.8°F-0.1°C 76% 14.0 mph SW22.5 kmh SW -- 29.80 in1009.1 mb 0.00 in0.0 mm 0.00 in0.0 mm 1.30 in33.0 mm
11:55 PM 38.5°F3.6°C 31.6°F-0.2°C 76% 10.0 mph WSW16.1 kmh WSW -- 29.80 in1009.1 mb 0.00 in0.0 mm 0.00 in0.0 mm 1.30 in33.0 mm